KDCM Airport (Chester Catawba Rgnl) Information

FAA: DCM - ICAO: KDCM

KDCM Airport Location

State South Carolina
County Chester
City Chester
KDCM Airport is 5 miles north of Chester, SC.
Latitude 34-47-21.6000N
Longitude 081-11-44.8000W
Elevation 656ft

KDCM Airport METARs

METAR KDCM 282255Z AUTO 00000KT 10SM CLR 26/13 A2991 RMK AO2 LTG DSNT SE
Altimeter 29.91"
Temperature 26.0°C (78.8°F)
Wind 0° at 0KT
Clouds Skies are clear.
Visibility 10.0mi
Time observed: 2022-05-28T22:55:00Z

KDCM Airport Details

Status Operational
Activation December 1943
Ownership Public
Usage Public
Chart CHARLOTTE
ATC on-site No
Beacon schedule sunset-sunrise
Beacon color clear green

KDCM Airport Contacts

Owner COUNTY OF CHESTER
Owner address P.O. BOX 594, CHESTER, SC 29706
Owner phone (803) 385-3154
Manager JOEL PHILLIPS
Manager address 39 AIRPORT CIRCLE, BEAUFORT, SC 29907
Manager phone 843-255-2972.

KDCM Airport (Chester Catawba Rgnl) Radio Frequencies

KDCM (Airport) Radio Frequencies

UNICOM 122.7
Common traffic advisory frequency (CTAF) 122.7